Strona główna
METAR-TAF:

METAR-TAF

Lotnisko :

Port lotniczy Batam-Hang Nadim

Batam, Indonezja

Szerokość geograficzna: 01-07-15N, Długość geograficzna: 104-07-07E, wysokość: 38 m

Aktualna obserwacja pogody

Raport powstał 34 minut temu, godzina 03:00 UTC
Cisza
Temperatura 25°C
Wilgotność 100%
Ciśnienie 1014 hPa
Widzialność: 5000 m
Przerywane chmury na wysokości 1300 ft
słaby deszcz

METAR: WIDD 100300Z 00000KT 5000 -RA BKN013 25/25 Q1014

czas: 10:34 (03:34 UTC)

Prognoza

Raport powstał 4 godziny i 34 minut temu, godzina 23:00 UTC
Prognoza ważna od 10 godzina 00 UTC do 10 godzina 24 UTC
Wiatr 8 kt od północ
Widzialność: 9000 m
Rozproszone chmury na wysokości 1400 ft
Prawdopodobieństwo 40% :
Przejściowo
od 10 godzina 00 UTC do 10 godzina 04 UTC
Widzialność: 4000 m
Mało chmury na wysokości 1400 ft, Cumulonimbus.
Przerywane chmury na wysokości 1400 ft
burza, słaby deszcz

TAF: WIDD 092300Z 1000/1024 01008KT 9000 SCT014 PROB40 TEMPO 1000/1004 4000 -TSRA FEW014CB BKN014

Obserwacja i prognoza pogody dla ponad 4000 lotnisk (raport METAR i TAF).

Dostępne stacje oznaczono żółtymi i czerwonymi punktami na mapie.

Najedź kursorem aby zobaczyć nazwę stacji.

Kliknij aby zobaczyć obserwacje i prognozy pogody.

Aby zmienić mapę: kliknij na zielony przycisk z czarnym krzyżykiem, aby powiększyć; na zielony przycisk z myślnikiem, aby pomniejszyć; na zielone strzałki, aby przejść do map sąsiednich.


METAR-TAF: